EYPA/PLQ METAR and TAF weather

Enter ICAO airport designator
Station Type Date Time Source
EYPA METAR 2020/02/19 11:20 UTC NOAA

EYPA 191120Z 21012KT 170V250 9999 OVC010 05/03 Q1006 R19/2///95


Station Type Date Time Source
EYPA Decoded METAR 2020/02/19 11:20 UTC NOAA

Palanga Intl., Lithuania (EYPA) 55-55-12N 021-03E
Feb 19, 2020 - 06:20 AM EST / 2020.02.19 1120 UTC
Wind: from the SSW (210 degrees) at 14 MPH (12 KT) (direction variable):0
Visibility: greater than 7 mile(s):0
Sky conditions: overcast
Temperature: 41 F (5 C)
Dew Point: 37 F (3 C)
Relative Humidity: 86%
Pressure (altimeter): 29.71 in. Hg (1006 hPa)
ob: EYPA 191120Z 21012KT 170V250 9999 OVC010 05/03 Q1006 R19/2///95
cycle: 11

Station Type Date Time Source
EYPA TAF 2020/02/19 12:03 UTC NOAA

TAF TAF EYPA 191101Z 1912/2012 22012G22KT 9000 BKN015
TEMPO 1912/1921 3000 SHRA BKN005 BKN012CB
BECMG 1921/1922 VRB02KT
TEMPO 1922/2002 SHRA SCT005 BKN018CB
TEMPO 2002/2007 5000 BR SCT005

Example: see airport list